sensor_id;sensor_type;location;lat;lon;timestamp;P1;durP1;ratioP1;P2;durP2;ratioP2
13002;SDS011;6566;57.702;11.984;2022-08-03T00:00:33;15.43;;;8.10;;
13002;SDS011;6566;57.702;11.984;2022-08-03T00:02:58;14.30;;;8.37;;
13002;SDS011;6566;57.702;11.984;2022-08-03T00:05:23;12.93;;;8.60;;
13002;SDS011;6566;57.702;11.984;2022-08-03T00:07:48;11.87;;;7.63;;
13002;SDS011;6566;57.702;11.984;2022-08-03T00:10:14;13.90;;;7.80;;
13002;SDS011;6566;57.702;11.984;2022-08-03T00:12:39;10.90;;;7.93;;
13002;SDS011;6566;57.702;11.984;2022-08-03T00:15:04;12.83;;;6.37;;
13002;SDS011;6566;57.702;11.984;2022-08-03T00:17:29;11.40;;;7.43;;
13002;SDS011;6566;57.702;11.984;2022-08-03T00:19:55;12.63;;;7.67;;
13002;SDS011;6566;57.702;11.984;2022-08-03T00:22:20;9.30;;;5.37;;
13002;SDS011;6566;57.702;11.984;2022-08-03T00:24:45;9.53;;;5.13;;
13002;SDS011;6566;57.702;11.984;2022-08-03T00:27:10;9.77;;;4.90;;
13002;SDS011;6566;57.702;11.984;2022-08-03T00:29:35;9.47;;;6.13;;
13002;SDS011;6566;57.702;11.984;2022-08-03T00:32:00;8.57;;;6.10;;
13002;SDS011;6566;57.702;11.984;2022-08-03T00:34:26;8.57;;;6.07;;
13002;SDS011;6566;57.702;11.984;2022-08-03T00:36:51;13.98;;;6.18;;
13002;SDS011;6566;57.702;11.984;2022-08-03T00:39:16;10.23;;;5.97;;
13002;SDS011;6566;57.702;11.984;2022-08-03T00:41:41;9.97;;;6.50;;
13002;SDS011;6566;57.702;11.984;2022-08-03T00:44:06;11.73;;;7.03;;
13002;SDS011;6566;57.702;11.984;2022-08-03T00:46:32;10.63;;;6.53;;
13002;SDS011;6566;57.702;11.984;2022-08-03T00:48:57;9.73;;;7.15;;
13002;SDS011;6566;57.702;11.984;2022-08-03T00:51:22;12.87;;;6.60;;
13002;SDS011;6566;57.702;11.984;2022-08-03T00:53:48;12.43;;;7.20;;
13002;SDS011;6566;57.702;11.984;2022-08-03T00:56:14;16.23;;;8.18;;
13002;SDS011;6566;57.702;11.984;2022-08-03T00:58:39;14.30;;;7.40;;
13002;SDS011;6566;57.702;11.984;2022-08-03T01:01:04;17.60;;;7.50;;
13002;SDS011;6566;57.702;11.984;2022-08-03T01:03:30;13.05;;;6.65;;
13002;SDS011;6566;57.702;11.984;2022-08-03T01:06:15;11.60;;;7.13;;
13002;SDS011;6566;57.702;11.984;2022-08-03T01:08:55;16.58;;;7.50;;
13002;SDS011;6566;57.702;11.984;2022-08-03T01:21:30;12.68;;;7.65;;
13002;SDS011;6566;57.702;11.984;2022-08-03T01:27:04;10.63;;;7.15;;
13002;SDS011;6566;57.702;11.984;2022-08-03T01:32:04;14.38;;;8.25;;
13002;SDS011;6566;57.702;11.984;2022-08-03T01:34:35;12.23;;;7.22;;
13002;SDS011;6566;57.702;11.984;2022-08-03T01:37:02;9.98;;;7.30;;
13002;SDS011;6566;57.702;11.984;2022-08-03T01:39:28;14.98;;;6.90;;
13002;SDS011;6566;57.702;11.984;2022-08-03T01:41:56;14.13;;;6.40;;
13002;SDS011;6566;57.702;11.984;2022-08-03T01:44:25;9.57;;;6.75;;
13002;SDS011;6566;57.702;11.984;2022-08-03T01:46:51;12.60;;;7.55;;
13002;SDS011;6566;57.702;11.984;2022-08-03T01:49:17;13.02;;;6.82;;
13002;SDS011;6566;57.702;11.984;2022-08-03T01:51:43;11.48;;;5.80;;
13002;SDS011;6566;57.702;11.984;2022-08-03T01:54:09;12.35;;;7.20;;
13002;SDS011;6566;57.702;11.984;2022-08-03T01:56:35;11.32;;;5.88;;
13002;SDS011;6566;57.702;11.984;2022-08-03T01:59:02;8.50;;;5.68;;
13002;SDS011;6566;57.702;11.984;2022-08-03T02:01:28;12.57;;;6.70;;
13002;SDS011;6566;57.702;11.984;2022-08-03T02:03:53;14.98;;;6.07;;
13002;SDS011;6566;57.702;11.984;2022-08-03T02:06:20;9.10;;;5.85;;
13002;SDS011;6566;57.702;11.984;2022-08-03T02:08:46;11.73;;;6.28;;
13002;SDS011;6566;57.702;11.984;2022-08-03T02:11:12;9.85;;;4.95;;
13002;SDS011;6566;57.702;11.984;2022-08-03T02:13:37;11.00;;;5.60;;
13002;SDS011;6566;57.702;11.984;2022-08-03T02:16:03;8.52;;;5.10;;
13002;SDS011;6566;57.702;11.984;2022-08-03T02:18:29;8.38;;;4.68;;
13002;SDS011;6566;57.702;11.984;2022-08-03T02:20:55;14.55;;;6.05;;
13002;SDS011;6566;57.702;11.984;2022-08-03T02:23:21;13.23;;;5.85;;
13002;SDS011;6566;57.702;11.984;2022-08-03T02:25:51;11.48;;;5.72;;
13002;SDS011;6566;57.702;11.984;2022-08-03T02:28:18;15.80;;;6.65;;
13002;SDS011;6566;57.702;11.984;2022-08-03T02:30:44;14.35;;;7.13;;
13002;SDS011;6566;57.702;11.984;2022-08-03T02:33:11;14.13;;;7.57;;
13002;SDS011;6566;57.702;11.984;2022-08-03T02:35:37;19.65;;;8.15;;
13002;SDS011;6566;57.702;11.984;2022-08-03T02:38:04;13.77;;;8.88;;
13002;SDS011;6566;57.702;11.984;2022-08-03T02:40:31;14.90;;;8.20;;
13002;SDS011;6566;57.702;11.984;2022-08-03T02:42:59;15.82;;;8.30;;
13002;SDS011;6566;57.702;11.984;2022-08-03T02:45:26;14.80;;;8.57;;
13002;SDS011;6566;57.702;11.984;2022-08-03T02:47:54;18.23;;;9.27;;
13002;SDS011;6566;57.702;11.984;2022-08-03T02:50:20;17.92;;;8.35;;
13002;SDS011;6566;57.702;11.984;2022-08-03T02:52:46;16.42;;;9.10;;
13002;SDS011;6566;57.702;11.984;2022-08-03T02:55:12;16.38;;;9.75;;
13002;SDS011;6566;57.702;11.984;2022-08-03T02:57:38;15.82;;;8.93;;
13002;SDS011;6566;57.702;11.984;2022-08-03T03:00:05;18.77;;;9.77;;
13002;SDS011;6566;57.702;11.984;2022-08-03T03:02:31;17.10;;;8.77;;
13002;SDS011;6566;57.702;11.984;2022-08-03T03:04:56;16.85;;;9.60;;
13002;SDS011;6566;57.702;11.984;2022-08-03T03:07:22;18.00;;;9.02;;
13002;SDS011;6566;57.702;11.984;2022-08-03T03:09:48;16.85;;;9.77;;
13002;SDS011;6566;57.702;11.984;2022-08-03T03:12:13;17.83;;;9.20;;
13002;SDS011;6566;57.702;11.984;2022-08-03T03:14:39;14.15;;;8.45;;
13002;SDS011;6566;57.702;11.984;2022-08-03T03:17:08;17.10;;;8.43;;
13002;SDS011;6566;57.702;11.984;2022-08-03T03:19:33;16.88;;;9.30;;
13002;SDS011;6566;57.702;11.984;2022-08-03T03:21:59;19.25;;;9.88;;
13002;SDS011;6566;57.702;11.984;2022-08-03T03:24:28;18.02;;;10.32;;
13002;SDS011;6566;57.702;11.984;2022-08-03T03:26:53;22.25;;;10.25;;
13002;SDS011;6566;57.702;11.984;2022-08-03T03:29:19;18.83;;;11.10;;
13002;SDS011;6566;57.702;11.984;2022-08-03T03:31:45;22.88;;;11.68;;
13002;SDS011;6566;57.702;11.984;2022-08-03T03:34:10;21.13;;;11.85;;
13002;SDS011;6566;57.702;11.984;2022-08-03T03:36:36;20.10;;;11.73;;
13002;SDS011;6566;57.702;11.984;2022-08-03T03:39:01;22.13;;;11.73;;
13002;SDS011;6566;57.702;11.984;2022-08-03T03:41:26;24.07;;;11.70;;
13002;SDS011;6566;57.702;11.984;2022-08-03T03:43:51;17.10;;;9.38;;
13002;SDS011;6566;57.702;11.984;2022-08-03T03:46:17;21.23;;;9.57;;
13002;SDS011;6566;57.702;11.984;2022-08-03T03:48:42;17.23;;;8.98;;
13002;SDS011;6566;57.702;11.984;2022-08-03T03:51:08;15.73;;;8.63;;
13002;SDS011;6566;57.702;11.984;2022-08-03T03:53:33;14.70;;;6.07;;
13002;SDS011;6566;57.702;11.984;2022-08-03T03:55:58;11.20;;;6.73;;
13002;SDS011;6566;57.702;11.984;2022-08-03T03:58:24;11.20;;;7.10;;
13002;SDS011;6566;57.702;11.984;2022-08-03T04:00:49;11.60;;;7.13;;
13002;SDS011;6566;57.702;11.984;2022-08-03T04:03:14;11.25;;;6.90;;
13002;SDS011;6566;57.702;11.984;2022-08-03T04:05:39;13.03;;;7.67;;
13002;SDS011;6566;57.702;11.984;2022-08-03T04:08:23;10.57;;;6.80;;
13002;SDS011;6566;57.702;11.984;2022-08-03T04:11:15;11.18;;;7.05;;
13002;SDS011;6566;57.702;11.984;2022-08-03T04:16:17;9.90;;;7.35;;
13002;SDS011;6566;57.702;11.984;2022-08-03T04:18:44;10.27;;;6.93;;
13002;SDS011;6566;57.702;11.984;2022-08-03T04:21:12;14.68;;;5.82;;
13002;SDS011;6566;57.702;11.984;2022-08-03T04:23:40;11.80;;;5.90;;
13002;SDS011;6566;57.702;11.984;2022-08-03T04:26:07;12.05;;;6.00;;
13002;SDS011;6566;57.702;11.984;2022-08-03T04:28:33;11.30;;;6.53;;
13002;SDS011;6566;57.702;11.984;2022-08-03T04:30:59;14.68;;;8.43;;
13002;SDS011;6566;57.702;11.984;2022-08-03T04:33:25;16.17;;;7.85;;
13002;SDS011;6566;57.702;11.984;2022-08-03T04:35:50;16.25;;;9.50;;
13002;SDS011;6566;57.702;11.984;2022-08-03T04:38:17;20.30;;;9.27;;
13002;SDS011;6566;57.702;11.984;2022-08-03T04:40:42;16.70;;;8.43;;
13002;SDS011;6566;57.702;11.984;2022-08-03T04:43:09;14.70;;;9.10;;
13002;SDS011;6566;57.702;11.984;2022-08-03T04:45:35;14.60;;;9.10;;
13002;SDS011;6566;57.702;11.984;2022-08-03T04:48:01;18.98;;;9.55;;
13002;SDS011;6566;57.702;11.984;2022-08-03T04:50:26;19.15;;;8.68;;
13002;SDS011;6566;57.702;11.984;2022-08-03T04:52:52;13.50;;;7.32;;
13002;SDS011;6566;57.702;11.984;2022-08-03T04:55:30;16.27;;;8.93;;
13002;SDS011;6566;57.702;11.984;2022-08-03T04:57:56;15.70;;;9.25;;
13002;SDS011;6566;57.702;11.984;2022-08-03T05:00:21;21.17;;;10.32;;
13002;SDS011;6566;57.702;11.984;2022-08-03T05:02:46;19.90;;;10.30;;
13002;SDS011;6566;57.702;11.984;2022-08-03T05:05:12;18.53;;;10.60;;
13002;SDS011;6566;57.702;11.984;2022-08-03T05:07:37;20.23;;;10.50;;
13002;SDS011;6566;57.702;11.984;2022-08-03T05:10:05;15.70;;;10.13;;
13002;SDS011;6566;57.702;11.984;2022-08-03T05:12:31;24.60;;;11.55;;
13002;SDS011;6566;57.702;11.984;2022-08-03T05:14:56;29.10;;;10.57;;
13002;SDS011;6566;57.702;11.984;2022-08-03T05:17:21;22.07;;;10.83;;
13002;SDS011;6566;57.702;11.984;2022-08-03T05:19:46;21.30;;;10.90;;
13002;SDS011;6566;57.702;11.984;2022-08-03T05:22:12;20.60;;;10.27;;
13002;SDS011;6566;57.702;11.984;2022-08-03T05:24:37;17.63;;;9.40;;
13002;SDS011;6566;57.702;11.984;2022-08-03T05:27:02;18.73;;;9.90;;
13002;SDS011;6566;57.702;11.984;2022-08-03T05:29:27;21.48;;;9.75;;
13002;SDS011;6566;57.702;11.984;2022-08-03T05:31:52;17.00;;;9.77;;
13002;SDS011;6566;57.702;11.984;2022-08-03T05:34:18;17.60;;;8.90;;
13002;SDS011;6566;57.702;11.984;2022-08-03T05:36:43;17.00;;;9.37;;
13002;SDS011;6566;57.702;11.984;2022-08-03T05:39:08;19.57;;;9.50;;
13002;SDS011;6566;57.702;11.984;2022-08-03T05:41:33;16.43;;;8.30;;
13002;SDS011;6566;57.702;11.984;2022-08-03T05:43:58;23.43;;;9.43;;
13002;SDS011;6566;57.702;11.984;2022-08-03T05:46:24;18.80;;;9.57;;
13002;SDS011;6566;57.702;11.984;2022-08-03T05:48:49;17.80;;;9.20;;
13002;SDS011;6566;57.702;11.984;2022-08-03T05:51:17;14.32;;;8.70;;
13002;SDS011;6566;57.702;11.984;2022-08-03T05:53:42;17.20;;;8.93;;
13002;SDS011;6566;57.702;11.984;2022-08-03T05:56:08;15.77;;;8.90;;
13002;SDS011;6566;57.702;11.984;2022-08-03T05:58:33;22.75;;;8.65;;
13002;SDS011;6566;57.702;11.984;2022-08-03T06:00:58;18.57;;;8.67;;
13002;SDS011;6566;57.702;11.984;2022-08-03T06:03:23;23.50;;;9.65;;
13002;SDS011;6566;57.702;11.984;2022-08-03T06:05:49;24.23;;;9.93;;
13002;SDS011;6566;57.702;11.984;2022-08-03T06:08:14;17.77;;;9.10;;
13002;SDS011;6566;57.702;11.984;2022-08-03T06:10:39;21.53;;;9.57;;
13002;SDS011;6566;57.702;11.984;2022-08-03T06:13:04;18.02;;;8.50;;
13002;SDS011;6566;57.702;11.984;2022-08-03T06:15:29;20.17;;;8.60;;
13002;SDS011;6566;57.702;11.984;2022-08-03T06:17:57;18.40;;;9.02;;
13002;SDS011;6566;57.702;11.984;2022-08-03T06:20:22;18.92;;;8.82;;
13002;SDS011;6566;57.702;11.984;2022-08-03T06:22:48;15.02;;;7.85;;
13002;SDS011;6566;57.702;11.984;2022-08-03T06:25:13;22.73;;;8.33;;
13002;SDS011;6566;57.702;11.984;2022-08-03T06:27:38;17.45;;;7.65;;
13002;SDS011;6566;57.702;11.984;2022-08-03T06:30:07;16.90;;;7.55;;
13002;SDS011;6566;57.702;11.984;2022-08-03T06:32:39;13.85;;;5.85;;
13002;SDS011;6566;57.702;11.984;2022-08-03T06:35:04;14.20;;;6.93;;
13002;SDS011;6566;57.702;11.984;2022-08-03T06:37:30;15.95;;;7.22;;
13002;SDS011;6566;57.702;11.984;2022-08-03T06:39:55;18.20;;;7.03;;
13002;SDS011;6566;57.702;11.984;2022-08-03T06:42:20;12.77;;;6.83;;
13002;SDS011;6566;57.702;11.984;2022-08-03T06:44:46;13.83;;;6.80;;
13002;SDS011;6566;57.702;11.984;2022-08-03T06:47:11;19.93;;;7.47;;
13002;SDS011;6566;57.702;11.984;2022-08-03T06:49:36;18.98;;;6.57;;
13002;SDS011;6566;57.702;11.984;2022-08-03T06:52:02;17.40;;;7.05;;
13002;SDS011;6566;57.702;11.984;2022-08-03T06:54:27;16.52;;;7.20;;
13002;SDS011;6566;57.702;11.984;2022-08-03T06:56:52;15.13;;;6.38;;
13002;SDS011;6566;57.702;11.984;2022-08-03T06:59:17;18.20;;;6.38;;
13002;SDS011;6566;57.702;11.984;2022-08-03T07:01:43;13.80;;;5.50;;
13002;SDS011;6566;57.702;11.984;2022-08-03T07:04:08;11.43;;;6.00;;
13002;SDS011;6566;57.702;11.984;2022-08-03T07:06:33;10.67;;;5.97;;
13002;SDS011;6566;57.702;11.984;2022-08-03T07:08:58;20.48;;;6.13;;
13002;SDS011;6566;57.702;11.984;2022-08-03T07:11:24;16.42;;;6.40;;
13002;SDS011;6566;57.702;11.984;2022-08-03T07:13:49;13.77;;;6.03;;
13002;SDS011;6566;57.702;11.984;2022-08-03T07:16:14;15.07;;;6.03;;
13002;SDS011;6566;57.702;11.984;2022-08-03T07:18:39;14.07;;;6.00;;
13002;SDS011;6566;57.702;11.984;2022-08-03T07:21:05;11.52;;;5.90;;
13002;SDS011;6566;57.702;11.984;2022-08-03T07:23:31;12.27;;;6.30;;
13002;SDS011;6566;57.702;11.984;2022-08-03T07:25:57;24.30;;;6.30;;
13002;SDS011;6566;57.702;11.984;2022-08-03T07:28:22;8.60;;;5.40;;
13002;SDS011;6566;57.702;11.984;2022-08-03T07:30:47;13.70;;;5.50;;
13002;SDS011;6566;57.702;11.984;2022-08-03T07:33:12;16.05;;;5.75;;
13002;SDS011;6566;57.702;11.984;2022-08-03T07:35:38;14.68;;;5.78;;
13002;SDS011;6566;57.702;11.984;2022-08-03T07:38:03;10.00;;;5.32;;
13002;SDS011;6566;57.702;11.984;2022-08-03T07:40:28;11.67;;;5.50;;
13002;SDS011;6566;57.702;11.984;2022-08-03T07:42:53;14.27;;;5.47;;
13002;SDS011;6566;57.702;11.984;2022-08-03T07:45:19;12.10;;;4.93;;
13002;SDS011;6566;57.702;11.984;2022-08-03T07:47:47;10.27;;;4.57;;
13002;SDS011;6566;57.702;11.984;2022-08-03T07:50:12;11.80;;;5.67;;
13002;SDS011;6566;57.702;11.984;2022-08-03T07:52:37;10.77;;;5.60;;
13002;SDS011;6566;57.702;11.984;2022-08-03T07:55:11;13.57;;;5.53;;
13002;SDS011;6566;57.702;11.984;2022-08-03T07:57:37;14.48;;;5.82;;
13002;SDS011;6566;57.702;11.984;2022-08-03T08:00:03;10.70;;;5.27;;
13002;SDS011;6566;57.702;11.984;2022-08-03T08:02:28;13.30;;;5.05;;
13002;SDS011;6566;57.702;11.984;2022-08-03T08:04:54;11.55;;;5.78;;
13002;SDS011;6566;57.702;11.984;2022-08-03T08:07:19;11.53;;;5.03;;
13002;SDS011;6566;57.702;11.984;2022-08-03T08:09:44;11.93;;;5.60;;
13002;SDS011;6566;57.702;11.984;2022-08-03T08:12:09;11.03;;;5.10;;
13002;SDS011;6566;57.702;11.984;2022-08-03T08:14:36;10.88;;;5.03;;
13002;SDS011;6566;57.702;11.984;2022-08-03T08:17:01;12.77;;;5.18;;
13002;SDS011;6566;57.702;11.984;2022-08-03T08:19:27;11.05;;;5.13;;
13002;SDS011;6566;57.702;11.984;2022-08-03T08:21:52;14.03;;;5.00;;
13002;SDS011;6566;57.702;11.984;2022-08-03T08:24:17;9.00;;;4.50;;
13002;SDS011;6566;57.702;11.984;2022-08-03T08:26:42;10.80;;;4.30;;
13002;SDS011;6566;57.702;11.984;2022-08-03T08:29:07;12.00;;;4.70;;
13002;SDS011;6566;57.702;11.984;2022-08-03T08:31:33;9.18;;;4.13;;
13002;SDS011;6566;57.702;11.984;2022-08-03T08:33:58;11.13;;;4.50;;
13002;SDS011;6566;57.702;11.984;2022-08-03T08:36:23;8.95;;;4.70;;
13002;SDS011;6566;57.702;11.984;2022-08-03T08:38:48;12.60;;;4.68;;
13002;SDS011;6566;57.702;11.984;2022-08-03T08:41:14;11.80;;;4.60;;
13002;SDS011;6566;57.702;11.984;2022-08-03T08:43:40;10.57;;;5.32;;
13002;SDS011;6566;57.702;11.984;2022-08-03T08:46:06;10.40;;;4.78;;
13002;SDS011;6566;57.702;11.984;2022-08-03T08:48:34;10.98;;;4.82;;
13002;SDS011;6566;57.702;11.984;2022-08-03T08:51:00;11.13;;;4.78;;
13002;SDS011;6566;57.702;11.984;2022-08-03T08:53:26;9.25;;;5.05;;
13002;SDS011;6566;57.702;11.984;2022-08-03T08:55:52;9.07;;;4.00;;
13002;SDS011;6566;57.702;11.984;2022-08-03T08:58:19;7.13;;;5.20;;
13002;SDS011;6566;57.702;11.984;2022-08-03T09:00:45;11.15;;;5.13;;
13002;SDS011;6566;57.702;11.984;2022-08-03T09:03:12;8.13;;;5.15;;
13002;SDS011;6566;57.702;11.984;2022-08-03T09:05:38;7.07;;;4.05;;
13002;SDS011;6566;57.702;11.984;2022-08-03T09:08:06;9.98;;;4.15;;
13002;SDS011;6566;57.702;11.984;2022-08-03T09:10:31;12.07;;;4.53;;
13002;SDS011;6566;57.702;11.984;2022-08-03T09:12:56;9.33;;;4.60;;
13002;SDS011;6566;57.702;11.984;2022-08-03T09:15:26;8.13;;;4.37;;
13002;SDS011;6566;57.702;11.984;2022-08-03T09:17:53;9.18;;;4.65;;
13002;SDS011;6566;57.702;11.984;2022-08-03T09:20:19;9.45;;;4.50;;
13002;SDS011;6566;57.702;11.984;2022-08-03T09:22:52;8.35;;;4.63;;
13002;SDS011;6566;57.702;11.984;2022-08-03T09:25:18;9.65;;;4.43;;
13002;SDS011;6566;57.702;11.984;2022-08-03T09:27:44;8.82;;;4.07;;
13002;SDS011;6566;57.702;11.984;2022-08-03T09:30:13;8.10;;;4.32;;
13002;SDS011;6566;57.702;11.984;2022-08-03T09:32:39;8.93;;;3.88;;
13002;SDS011;6566;57.702;11.984;2022-08-03T09:35:04;12.77;;;5.25;;
13002;SDS011;6566;57.702;11.984;2022-08-03T09:37:29;8.80;;;4.13;;
13002;SDS011;6566;57.702;11.984;2022-08-03T09:39:54;13.17;;;4.23;;
13002;SDS011;6566;57.702;11.984;2022-08-03T09:42:20;7.30;;;3.65;;
13002;SDS011;6566;57.702;11.984;2022-08-03T09:44:48;7.28;;;4.78;;
13002;SDS011;6566;57.702;11.984;2022-08-03T09:47:14;8.90;;;4.75;;
13002;SDS011;6566;57.702;11.984;2022-08-03T09:49:40;9.65;;;4.22;;
13002;SDS011;6566;57.702;11.984;2022-08-03T09:52:13;7.07;;;3.83;;
13002;SDS011;6566;57.702;11.984;2022-08-03T09:54:38;12.50;;;4.70;;
13002;SDS011;6566;57.702;11.984;2022-08-03T09:57:03;7.47;;;4.32;;
13002;SDS011;6566;57.702;11.984;2022-08-03T09:59:30;10.00;;;4.60;;
13002;SDS011;6566;57.702;11.984;2022-08-03T10:01:56;15.15;;;4.88;;
13002;SDS011;6566;57.702;11.984;2022-08-03T10:04:21;12.25;;;4.82;;
13002;SDS011;6566;57.702;11.984;2022-08-03T10:09:27;7.43;;;4.28;;
13002;SDS011;6566;57.702;11.984;2022-08-03T10:11:52;9.75;;;4.53;;
13002;SDS011;6566;57.702;11.984;2022-08-03T10:14:18;15.88;;;5.13;;
13002;SDS011;6566;57.702;11.984;2022-08-03T10:16:44;5.35;;;4.65;;
13002;SDS011;6566;57.702;11.984;2022-08-03T10:19:10;7.47;;;4.88;;
13002;SDS011;6566;57.702;11.984;2022-08-03T10:21:40;12.77;;;5.35;;
13002;SDS011;6566;57.702;11.984;2022-08-03T10:24:06;8.50;;;5.50;;
13002;SDS011;6566;57.702;11.984;2022-08-03T10:26:34;11.30;;;5.70;;
13002;SDS011;6566;57.702;11.984;2022-08-03T10:28:59;9.93;;;5.80;;
13002;SDS011;6566;57.702;11.984;2022-08-03T10:31:27;11.75;;;5.10;;
13002;SDS011;6566;57.702;11.984;2022-08-03T10:33:56;12.95;;;5.72;;
13002;SDS011;6566;57.702;11.984;2022-08-03T10:36:23;9.27;;;5.35;;
13002;SDS011;6566;57.702;11.984;2022-08-03T10:38:50;11.70;;;5.32;;
13002;SDS011;6566;57.702;11.984;2022-08-03T10:41:19;9.45;;;5.70;;
13002;SDS011;6566;57.702;11.984;2022-08-03T10:46:13;10.77;;;5.57;;
13002;SDS011;6566;57.702;11.984;2022-08-03T10:48:39;10.57;;;5.53;;
13002;SDS011;6566;57.702;11.984;2022-08-03T10:51:04;8.40;;;5.20;;
13002;SDS011;6566;57.702;11.984;2022-08-03T10:53:35;10.77;;;5.57;;
13002;SDS011;6566;57.702;11.984;2022-08-03T10:56:00;8.63;;;4.53;;
13002;SDS011;6566;57.702;11.984;2022-08-03T10:58:48;17.00;;;6.50;;
13002;SDS011;6566;57.702;11.984;2022-08-03T11:01:14;9.40;;;4.70;;
13002;SDS011;6566;57.702;11.984;2022-08-03T11:04:13;10.87;;;6.70;;
13002;SDS011;6566;57.702;11.984;2022-08-03T11:06:30;9.60;;;6.55;;
13002;SDS011;6566;57.702;11.984;2022-08-03T11:11:36;14.40;;;6.70;;
13002;SDS011;6566;57.702;11.984;2022-08-03T11:14:03;13.48;;;6.85;;
13002;SDS011;6566;57.702;11.984;2022-08-03T11:16:30;11.02;;;7.47;;
13002;SDS011;6566;57.702;11.984;2022-08-03T11:18:56;10.50;;;7.18;;
13002;SDS011;6566;57.702;11.984;2022-08-03T11:21:43;11.77;;;6.95;;
13002;SDS011;6566;57.702;11.984;2022-08-03T11:24:07;13.13;;;6.82;;
13002;SDS011;6566;57.702;11.984;2022-08-03T11:26:32;17.13;;;8.00;;
13002;SDS011;6566;57.702;11.984;2022-08-03T11:29:25;13.02;;;6.93;;
13002;SDS011;6566;57.702;11.984;2022-08-03T11:31:43;15.75;;;7.03;;
13002;SDS011;6566;57.702;11.984;2022-08-03T11:34:10;17.38;;;7.32;;
13002;SDS011;6566;57.702;11.984;2022-08-03T11:39:20;15.20;;;7.10;;
13002;SDS011;6566;57.702;11.984;2022-08-03T11:41:45;19.30;;;7.47;;
13002;SDS011;6566;57.702;11.984;2022-08-03T11:44:28;16.93;;;7.73;;
13002;SDS011;6566;57.702;11.984;2022-08-03T11:46:55;11.05;;;6.90;;
13002;SDS011;6566;57.702;11.984;2022-08-03T11:49:20;16.77;;;7.13;;
13002;SDS011;6566;57.702;11.984;2022-08-03T11:51:51;13.77;;;6.50;;
13002;SDS011;6566;57.702;11.984;2022-08-03T11:54:18;13.25;;;7.68;;
13002;SDS011;6566;57.702;11.984;2022-08-03T11:56:44;19.58;;;7.55;;
13002;SDS011;6566;57.702;11.984;2022-08-03T11:59:09;20.33;;;6.93;;
13002;SDS011;6566;57.702;11.984;2022-08-03T12:01:35;21.93;;;8.30;;
13002;SDS011;6566;57.702;11.984;2022-08-03T12:04:02;13.55;;;8.30;;
13002;SDS011;6566;57.702;11.984;2022-08-03T12:06:28;19.88;;;7.57;;
13002;SDS011;6566;57.702;11.984;2022-08-03T12:08:53;16.57;;;7.07;;
13002;SDS011;6566;57.702;11.984;2022-08-03T12:11:18;17.60;;;7.23;;
13002;SDS011;6566;57.702;11.984;2022-08-03T12:13:45;18.03;;;7.30;;
13002;SDS011;6566;57.702;11.984;2022-08-03T12:16:16;17.17;;;7.45;;
13002;SDS011;6566;57.702;11.984;2022-08-03T12:18:42;15.40;;;8.05;;
13002;SDS011;6566;57.702;11.984;2022-08-03T12:21:08;18.35;;;6.70;;
13002;SDS011;6566;57.702;11.984;2022-08-03T12:23:34;12.73;;;6.07;;
13002;SDS011;6566;57.702;11.984;2022-08-03T12:26:00;11.07;;;4.70;;
13002;SDS011;6566;57.702;11.984;2022-08-03T12:28:25;14.50;;;6.07;;
13002;SDS011;6566;57.702;11.984;2022-08-03T12:30:51;14.37;;;6.27;;
13002;SDS011;6566;57.702;11.984;2022-08-03T12:35:48;18.63;;;6.68;;
13002;SDS011;6566;57.702;11.984;2022-08-03T12:38:18;13.82;;;5.80;;
13002;SDS011;6566;57.702;11.984;2022-08-03T12:40:43;9.32;;;5.40;;
13002;SDS011;6566;57.702;11.984;2022-08-03T12:43:12;15.98;;;6.65;;
13002;SDS011;6566;57.702;11.984;2022-08-03T12:45:37;19.45;;;6.88;;
13002;SDS011;6566;57.702;11.984;2022-08-03T12:48:03;14.80;;;8.00;;
13002;SDS011;6566;57.702;11.984;2022-08-03T12:50:32;16.90;;;6.85;;
13002;SDS011;6566;57.702;11.984;2022-08-03T12:52:59;12.55;;;6.55;;
13002;SDS011;6566;57.702;11.984;2022-08-03T12:55:25;16.05;;;6.63;;
13002;SDS011;6566;57.702;11.984;2022-08-03T12:57:57;13.63;;;6.20;;
13002;SDS011;6566;57.702;11.984;2022-08-03T13:00:23;13.38;;;7.85;;
13002;SDS011;6566;57.702;11.984;2022-08-03T13:02:57;17.13;;;6.90;;
13002;SDS011;6566;57.702;11.984;2022-08-03T13:05:22;14.43;;;6.70;;
13002;SDS011;6566;57.702;11.984;2022-08-03T13:07:48;15.10;;;6.60;;
13002;SDS011;6566;57.702;11.984;2022-08-03T13:10:25;17.20;;;6.53;;
13002;SDS011;6566;57.702;11.984;2022-08-03T13:12:51;11.70;;;5.03;;
13002;SDS011;6566;57.702;11.984;2022-08-03T13:15:17;13.18;;;6.13;;
13002;SDS011;6566;57.702;11.984;2022-08-03T13:17:42;12.65;;;5.85;;
13002;SDS011;6566;57.702;11.984;2022-08-03T13:20:07;17.27;;;6.20;;
13002;SDS011;6566;57.702;11.984;2022-08-03T13:22:32;15.85;;;5.70;;
13002;SDS011;6566;57.702;11.984;2022-08-03T13:24:58;13.60;;;5.72;;
13002;SDS011;6566;57.702;11.984;2022-08-03T13:27:25;14.32;;;5.28;;
13002;SDS011;6566;57.702;11.984;2022-08-03T13:29:50;16.15;;;6.50;;
13002;SDS011;6566;57.702;11.984;2022-08-03T13:32:17;16.60;;;5.93;;
13002;SDS011;6566;57.702;11.984;2022-08-03T13:34:42;15.30;;;4.97;;
13002;SDS011;6566;57.702;11.984;2022-08-03T13:37:07;10.63;;;5.20;;
13002;SDS011;6566;57.702;11.984;2022-08-03T13:39:33;13.70;;;5.47;;
13002;SDS011;6566;57.702;11.984;2022-08-03T13:41:58;14.43;;;5.30;;
13002;SDS011;6566;57.702;11.984;2022-08-03T13:44:23;13.90;;;5.37;;
13002;SDS011;6566;57.702;11.984;2022-08-03T13:46:49;20.07;;;5.67;;
13002;SDS011;6566;57.702;11.984;2022-08-03T13:49:14;12.10;;;5.75;;
13002;SDS011;6566;57.702;11.984;2022-08-03T13:51:39;13.27;;;4.82;;
13002;SDS011;6566;57.702;11.984;2022-08-03T13:54:05;18.63;;;5.13;;
13002;SDS011;6566;57.702;11.984;2022-08-03T13:56:30;14.50;;;5.67;;
13002;SDS011;6566;57.702;11.984;2022-08-03T13:58:55;15.80;;;6.10;;
13002;SDS011;6566;57.702;11.984;2022-08-03T14:01:21;11.15;;;5.15;;
13002;SDS011;6566;57.702;11.984;2022-08-03T14:03:46;12.55;;;5.13;;
13002;SDS011;6566;57.702;11.984;2022-08-03T14:06:14;14.40;;;5.10;;
13002;SDS011;6566;57.702;11.984;2022-08-03T14:08:39;10.00;;;4.43;;
13002;SDS011;6566;57.702;11.984;2022-08-03T14:11:04;10.80;;;4.43;;
13002;SDS011;6566;57.702;11.984;2022-08-03T14:13:30;13.52;;;5.13;;
13002;SDS011;6566;57.702;11.984;2022-08-03T14:15:55;14.48;;;5.10;;
13002;SDS011;6566;57.702;11.984;2022-08-03T14:18:20;10.63;;;4.37;;
13002;SDS011;6566;57.702;11.984;2022-08-03T14:20:46;11.02;;;4.35;;
13002;SDS011;6566;57.702;11.984;2022-08-03T14:23:11;14.23;;;5.22;;
13002;SDS011;6566;57.702;11.984;2022-08-03T14:25:36;8.00;;;4.05;;
13002;SDS011;6566;57.702;11.984;2022-08-03T14:28:02;15.10;;;5.30;;
13002;SDS011;6566;57.702;11.984;2022-08-03T14:30:27;14.43;;;4.88;;
13002;SDS011;6566;57.702;11.984;2022-08-03T14:32:52;13.07;;;4.67;;
13002;SDS011;6566;57.702;11.984;2022-08-03T14:35:17;11.60;;;4.40;;
13002;SDS011;6566;57.702;11.984;2022-08-03T14:37:42;14.03;;;4.63;;
13002;SDS011;6566;57.702;11.984;2022-08-03T14:40:08;10.47;;;4.53;;
13002;SDS011;6566;57.702;11.984;2022-08-03T14:42:33;13.77;;;4.38;;
13002;SDS011;6566;57.702;11.984;2022-08-03T14:44:58;11.37;;;3.90;;
13002;SDS011;6566;57.702;11.984;2022-08-03T14:47:23;12.50;;;4.47;;
13002;SDS011;6566;57.702;11.984;2022-08-03T14:49:49;11.55;;;4.07;;
13002;SDS011;6566;57.702;11.984;2022-08-03T14:52:14;13.40;;;4.33;;
13002;SDS011;6566;57.702;11.984;2022-08-03T14:54:39;15.33;;;4.60;;
13002;SDS011;6566;57.702;11.984;2022-08-03T14:57:04;14.30;;;4.73;;
13002;SDS011;6566;57.702;11.984;2022-08-03T14:59:29;13.43;;;4.40;;
13002;SDS011;6566;57.702;11.984;2022-08-03T15:01:55;10.93;;;4.43;;